sensor_id;sensor_type;location;lat;lon;timestamp;P1;durP1;ratioP1;P2;durP2;ratioP2
77004;SDS011;67261;53.132;18.006;2023-03-26T00:01:34;9.00;;;5.00;;
77004;SDS011;67261;53.132;18.006;2023-03-26T00:04:04;9.20;;;4.40;;
77004;SDS011;67261;53.132;18.006;2023-03-26T00:06:35;7.30;;;3.40;;
77004;SDS011;67261;53.132;18.006;2023-03-26T00:09:05;6.50;;;3.20;;
77004;SDS011;67261;53.132;18.006;2023-03-26T00:11:38;10.90;;;5.20;;
77004;SDS011;67261;53.132;18.006;2023-03-26T00:14:05;9.90;;;4.70;;
77004;SDS011;67261;53.132;18.006;2023-03-26T00:16:32;7.40;;;4.10;;
77004;SDS011;67261;53.132;18.006;2023-03-26T00:19:00;7.20;;;3.80;;
77004;SDS011;67261;53.132;18.006;2023-03-26T00:21:28;6.90;;;4.00;;
77004;SDS011;67261;53.132;18.006;2023-03-26T00:23:57;6.40;;;3.60;;
77004;SDS011;67261;53.132;18.006;2023-03-26T00:27:06;7.70;;;3.20;;
77004;SDS011;67261;53.132;18.006;2023-03-26T00:29:33;8.40;;;3.70;;
77004;SDS011;67261;53.132;18.006;2023-03-26T00:32:01;6.60;;;3.30;;
77004;SDS011;67261;53.132;18.006;2023-03-26T00:34:29;7.50;;;3.80;;
77004;SDS011;67261;53.132;18.006;2023-03-26T00:37:00;7.00;;;3.70;;
77004;SDS011;67261;53.132;18.006;2023-03-26T00:39:28;6.70;;;3.60;;
77004;SDS011;67261;53.132;18.006;2023-03-26T00:41:58;9.40;;;4.10;;
77004;SDS011;67261;53.132;18.006;2023-03-26T00:44:41;10.80;;;4.00;;
77004;SDS011;67261;53.132;18.006;2023-03-26T00:47:18;7.00;;;3.80;;
77004;SDS011;67261;53.132;18.006;2023-03-26T00:49:46;7.40;;;3.60;;
77004;SDS011;67261;53.132;18.006;2023-03-26T00:52:14;6.80;;;3.40;;
77004;SDS011;67261;53.132;18.006;2023-03-26T00:54:52;7.20;;;3.70;;
77004;SDS011;67261;53.132;18.006;2023-03-26T00:57:47;8.00;;;3.90;;
77004;SDS011;67261;53.132;18.006;2023-03-26T01:00:16;5.70;;;3.20;;
77004;SDS011;67261;53.132;18.006;2023-03-26T01:02:43;6.70;;;3.10;;
77004;SDS011;67261;53.132;18.006;2023-03-26T01:08:31;5.80;;;3.00;;
77004;SDS011;67261;53.132;18.006;2023-03-26T01:11:30;5.60;;;2.80;;
77004;SDS011;67261;53.132;18.006;2023-03-26T01:14:01;6.20;;;2.50;;
77004;SDS011;67261;53.132;18.006;2023-03-26T01:16:40;6.20;;;3.20;;
77004;SDS011;67261;53.132;18.006;2023-03-26T01:19:36;6.30;;;3.20;;
77004;SDS011;67261;53.132;18.006;2023-03-26T01:22:20;7.40;;;3.60;;
77004;SDS011;67261;53.132;18.006;2023-03-26T01:24:49;6.70;;;2.80;;
77004;SDS011;67261;53.132;18.006;2023-03-26T01:45:35;4.90;;;2.20;;
77004;SDS011;67261;53.132;18.006;2023-03-26T01:48:04;4.00;;;1.80;;
77004;SDS011;67261;53.132;18.006;2023-03-26T01:50:32;4.80;;;1.90;;
77004;SDS011;67261;53.132;18.006;2023-03-26T01:52:59;6.20;;;1.80;;
77004;SDS011;67261;53.132;18.006;2023-03-26T01:55:31;4.40;;;2.00;;
77004;SDS011;67261;53.132;18.006;2023-03-26T02:03:48;4.40;;;1.70;;
77004;SDS011;67261;53.132;18.006;2023-03-26T02:09:04;4.60;;;1.70;;
77004;SDS011;67261;53.132;18.006;2023-03-26T02:11:35;4.50;;;1.60;;
77004;SDS011;67261;53.132;18.006;2023-03-26T02:14:04;3.80;;;1.40;;
77004;SDS011;67261;53.132;18.006;2023-03-26T02:16:32;4.90;;;1.60;;
77004;SDS011;67261;53.132;18.006;2023-03-26T02:18:58;4.40;;;1.60;;
77004;SDS011;67261;53.132;18.006;2023-03-26T02:21:26;3.80;;;1.60;;
77004;SDS011;67261;53.132;18.006;2023-03-26T02:23:54;3.30;;;1.20;;
77004;SDS011;67261;53.132;18.006;2023-03-26T02:26:30;3.50;;;1.90;;
77004;SDS011;67261;53.132;18.006;2023-03-26T02:29:11;4.20;;;1.30;;
77004;SDS011;67261;53.132;18.006;2023-03-26T02:31:43;4.00;;;1.50;;
77004;SDS011;67261;53.132;18.006;2023-03-26T02:34:10;3.20;;;1.10;;
77004;SDS011;67261;53.132;18.006;2023-03-26T02:36:37;4.20;;;1.20;;
77004;SDS011;67261;53.132;18.006;2023-03-26T02:39:04;3.60;;;1.10;;
77004;SDS011;67261;53.132;18.006;2023-03-26T02:41:33;3.10;;;1.10;;
77004;SDS011;67261;53.132;18.006;2023-03-26T02:44:03;2.40;;;1.00;;
77004;SDS011;67261;53.132;18.006;2023-03-26T02:46:49;5.00;;;1.20;;
77004;SDS011;67261;53.132;18.006;2023-03-26T02:49:36;3.10;;;1.00;;
77004;SDS011;67261;53.132;18.006;2023-03-26T02:52:03;3.10;;;1.30;;
77004;SDS011;67261;53.132;18.006;2023-03-26T02:54:32;3.10;;;1.00;;
77004;SDS011;67261;53.132;18.006;2023-03-26T02:57:21;4.80;;;1.30;;
77004;SDS011;67261;53.132;18.006;2023-03-26T03:00:02;3.80;;;1.40;;
77004;SDS011;67261;53.132;18.006;2023-03-26T03:03:03;2.90;;;1.20;;
77004;SDS011;67261;53.132;18.006;2023-03-26T03:05:31;2.70;;;0.90;;
77004;SDS011;67261;53.132;18.006;2023-03-26T03:08:18;2.90;;;1.10;;
77004;SDS011;67261;53.132;18.006;2023-03-26T03:11:17;3.40;;;1.30;;
77004;SDS011;67261;53.132;18.006;2023-03-26T03:13:52;3.80;;;1.50;;
77004;SDS011;67261;53.132;18.006;2023-03-26T03:16:26;3.20;;;1.40;;
77004;SDS011;67261;53.132;18.006;2023-03-26T03:18:53;4.10;;;1.40;;
77004;SDS011;67261;53.132;18.006;2023-03-26T03:21:23;3.60;;;1.70;;
77004;SDS011;67261;53.132;18.006;2023-03-26T03:23:52;4.20;;;1.50;;
77004;SDS011;67261;53.132;18.006;2023-03-26T03:26:20;5.50;;;1.60;;
77004;SDS011;67261;53.132;18.006;2023-03-26T03:28:52;3.50;;;1.60;;
77004;SDS011;67261;53.132;18.006;2023-03-26T03:31:21;3.60;;;1.70;;
77004;SDS011;67261;53.132;18.006;2023-03-26T03:33:50;4.40;;;1.70;;
77004;SDS011;67261;53.132;18.006;2023-03-26T03:36:18;5.10;;;1.70;;
77004;SDS011;67261;53.132;18.006;2023-03-26T03:39:05;3.50;;;2.10;;
77004;SDS011;67261;53.132;18.006;2023-03-26T03:41:33;4.00;;;1.80;;
77004;SDS011;67261;53.132;18.006;2023-03-26T03:44:00;4.50;;;1.50;;
77004;SDS011;67261;53.132;18.006;2023-03-26T03:46:29;3.20;;;1.80;;
77004;SDS011;67261;53.132;18.006;2023-03-26T03:48:56;3.00;;;1.60;;
77004;SDS011;67261;53.132;18.006;2023-03-26T03:51:30;3.10;;;1.60;;
77004;SDS011;67261;53.132;18.006;2023-03-26T03:53:59;3.60;;;1.70;;
77004;SDS011;67261;53.132;18.006;2023-03-26T03:56:46;5.60;;;1.70;;
77004;SDS011;67261;53.132;18.006;2023-03-26T03:59:17;4.70;;;2.40;;
77004;SDS011;67261;53.132;18.006;2023-03-26T04:01:44;3.80;;;1.50;;
77004;SDS011;67261;53.132;18.006;2023-03-26T04:04:30;2.80;;;1.50;;
77004;SDS011;67261;53.132;18.006;2023-03-26T04:07:03;4.50;;;1.60;;
77004;SDS011;67261;53.132;18.006;2023-03-26T04:10:11;3.50;;;1.30;;
77004;SDS011;67261;53.132;18.006;2023-03-26T04:13:06;3.70;;;1.50;;
77004;SDS011;67261;53.132;18.006;2023-03-26T04:15:59;5.00;;;1.70;;
77004;SDS011;67261;53.132;18.006;2023-03-26T04:18:26;4.30;;;1.70;;
77004;SDS011;67261;53.132;18.006;2023-03-26T04:20:55;4.20;;;1.70;;
77004;SDS011;67261;53.132;18.006;2023-03-26T04:23:31;5.00;;;1.90;;
77004;SDS011;67261;53.132;18.006;2023-03-26T04:26:06;3.60;;;1.60;;
77004;SDS011;67261;53.132;18.006;2023-03-26T04:28:59;3.50;;;2.00;;
77004;SDS011;67261;53.132;18.006;2023-03-26T04:31:29;4.10;;;1.90;;
77004;SDS011;67261;53.132;18.006;2023-03-26T04:34:07;4.30;;;2.20;;
77004;SDS011;67261;53.132;18.006;2023-03-26T04:36:48;3.90;;;1.70;;
77004;SDS011;67261;53.132;18.006;2023-03-26T04:39:22;4.20;;;1.90;;
77004;SDS011;67261;53.132;18.006;2023-03-26T04:42:23;4.10;;;1.90;;
77004;SDS011;67261;53.132;18.006;2023-03-26T04:45:13;4.20;;;1.70;;
77004;SDS011;67261;53.132;18.006;2023-03-26T04:47:42;4.50;;;2.30;;
77004;SDS011;67261;53.132;18.006;2023-03-26T04:50:11;5.20;;;2.40;;
77004;SDS011;67261;53.132;18.006;2023-03-26T04:52:38;5.60;;;1.70;;
77004;SDS011;67261;53.132;18.006;2023-03-26T05:01:03;5.00;;;2.90;;
77004;SDS011;67261;53.132;18.006;2023-03-26T05:03:31;3.50;;;1.80;;
77004;SDS011;67261;53.132;18.006;2023-03-26T05:06:00;5.70;;;2.30;;
77004;SDS011;67261;53.132;18.006;2023-03-26T05:08:32;4.10;;;1.90;;
77004;SDS011;67261;53.132;18.006;2023-03-26T05:10:58;4.00;;;1.90;;
77004;SDS011;67261;53.132;18.006;2023-03-26T05:13:33;4.50;;;2.20;;
77004;SDS011;67261;53.132;18.006;2023-03-26T05:16:04;3.60;;;2.00;;
77004;SDS011;67261;53.132;18.006;2023-03-26T05:18:51;4.20;;;1.90;;
77004;SDS011;67261;53.132;18.006;2023-03-26T05:21:19;4.30;;;1.90;;
77004;SDS011;67261;53.132;18.006;2023-03-26T05:23:47;3.60;;;2.00;;
77004;SDS011;67261;53.132;18.006;2023-03-26T05:26:19;3.30;;;1.90;;
77004;SDS011;67261;53.132;18.006;2023-03-26T05:28:46;5.00;;;2.10;;
77004;SDS011;67261;53.132;18.006;2023-03-26T05:31:20;4.30;;;2.40;;
77004;SDS011;67261;53.132;18.006;2023-03-26T05:33:47;3.80;;;2.10;;
77004;SDS011;67261;53.132;18.006;2023-03-26T05:36:15;4.50;;;2.40;;
77004;SDS011;67261;53.132;18.006;2023-03-26T05:39:02;3.60;;;1.70;;
77004;SDS011;67261;53.132;18.006;2023-03-26T05:41:48;4.10;;;2.00;;
77004;SDS011;67261;53.132;18.006;2023-03-26T05:44:15;4.20;;;2.20;;
77004;SDS011;67261;53.132;18.006;2023-03-26T05:46:41;3.80;;;2.10;;
77004;SDS011;67261;53.132;18.006;2023-03-26T05:49:12;4.50;;;2.30;;
77004;SDS011;67261;53.132;18.006;2023-03-26T05:51:39;6.00;;;2.60;;
77004;SDS011;67261;53.132;18.006;2023-03-26T05:54:24;25.10;;;12.10;;
77004;SDS011;67261;53.132;18.006;2023-03-26T05:57:10;7.30;;;4.70;;
77004;SDS011;67261;53.132;18.006;2023-03-26T05:59:55;5.40;;;2.70;;
77004;SDS011;67261;53.132;18.006;2023-03-26T06:02:40;5.10;;;2.40;;
77004;SDS011;67261;53.132;18.006;2023-03-26T06:05:26;5.70;;;2.10;;
77004;SDS011;67261;53.132;18.006;2023-03-26T06:08:19;5.30;;;2.60;;
77004;SDS011;67261;53.132;18.006;2023-03-26T06:10:56;7.80;;;3.10;;
77004;SDS011;67261;53.132;18.006;2023-03-26T06:13:26;6.30;;;2.80;;
77004;SDS011;67261;53.132;18.006;2023-03-26T06:15:53;5.10;;;2.40;;
77004;SDS011;67261;53.132;18.006;2023-03-26T06:18:25;4.60;;;2.30;;
77004;SDS011;67261;53.132;18.006;2023-03-26T06:21:09;4.90;;;3.00;;
77004;SDS011;67261;53.132;18.006;2023-03-26T06:23:42;5.90;;;2.80;;
77004;SDS011;67261;53.132;18.006;2023-03-26T06:26:27;5.00;;;2.90;;
77004;SDS011;67261;53.132;18.006;2023-03-26T06:29:08;4.40;;;2.30;;
77004;SDS011;67261;53.132;18.006;2023-03-26T06:31:46;9.50;;;4.60;;
77004;SDS011;67261;53.132;18.006;2023-03-26T06:34:19;7.10;;;4.30;;
77004;SDS011;67261;53.132;18.006;2023-03-26T06:36:48;6.10;;;3.10;;
77004;SDS011;67261;53.132;18.006;2023-03-26T06:39:18;5.40;;;3.30;;
77004;SDS011;67261;53.132;18.006;2023-03-26T06:42:05;3.90;;;1.90;;
77004;SDS011;67261;53.132;18.006;2023-03-26T06:44:58;4.10;;;1.60;;
77004;SDS011;67261;53.132;18.006;2023-03-26T06:47:31;3.20;;;1.60;;
77004;SDS011;67261;53.132;18.006;2023-03-26T06:50:18;4.10;;;1.80;;
77004;SDS011;67261;53.132;18.006;2023-03-26T06:53:05;4.30;;;1.40;;
77004;SDS011;67261;53.132;18.006;2023-03-26T06:55:53;3.60;;;1.50;;
77004;SDS011;67261;53.132;18.006;2023-03-26T06:58:40;4.10;;;1.90;;
77004;SDS011;67261;53.132;18.006;2023-03-26T07:01:26;3.60;;;1.70;;
77004;SDS011;67261;53.132;18.006;2023-03-26T07:04:12;4.30;;;1.70;;
77004;SDS011;67261;53.132;18.006;2023-03-26T07:06:57;4.10;;;1.80;;
77004;SDS011;67261;53.132;18.006;2023-03-26T07:09:50;4.30;;;1.80;;
77004;SDS011;67261;53.132;18.006;2023-03-26T07:12:35;4.60;;;2.20;;
77004;SDS011;67261;53.132;18.006;2023-03-26T07:15:20;5.00;;;2.20;;
77004;SDS011;67261;53.132;18.006;2023-03-26T07:18:13;5.10;;;2.40;;
77004;SDS011;67261;53.132;18.006;2023-03-26T07:20:43;4.10;;;2.30;;
77004;SDS011;67261;53.132;18.006;2023-03-26T07:23:13;3.70;;;1.60;;
77004;SDS011;67261;53.132;18.006;2023-03-26T07:25:55;4.60;;;2.00;;
77004;SDS011;67261;53.132;18.006;2023-03-26T07:34:16;4.80;;;2.10;;
77004;SDS011;67261;53.132;18.006;2023-03-26T07:47:04;4.40;;;1.80;;
77004;SDS011;67261;53.132;18.006;2023-03-26T07:50:02;4.10;;;1.70;;
77004;SDS011;67261;53.132;18.006;2023-03-26T07:52:47;5.00;;;2.50;;
77004;SDS011;67261;53.132;18.006;2023-03-26T07:55:35;5.00;;;2.00;;
77004;SDS011;67261;53.132;18.006;2023-03-26T07:58:48;4.20;;;2.00;;
77004;SDS011;67261;53.132;18.006;2023-03-26T08:11:54;4.90;;;2.60;;
77004;SDS011;67261;53.132;18.006;2023-03-26T08:14:31;7.00;;;3.80;;
77004;SDS011;67261;53.132;18.006;2023-03-26T08:17:26;9.50;;;5.30;;
77004;SDS011;67261;53.132;18.006;2023-03-26T08:22:51;9.60;;;3.80;;
77004;SDS011;67261;53.132;18.006;2023-03-26T08:26:04;5.90;;;3.00;;
77004;SDS011;67261;53.132;18.006;2023-03-26T08:28:48;6.10;;;3.80;;
77004;SDS011;67261;53.132;18.006;2023-03-26T08:31:33;7.90;;;5.40;;
77004;SDS011;67261;53.132;18.006;2023-03-26T08:34:04;6.90;;;4.50;;
77004;SDS011;67261;53.132;18.006;2023-03-26T08:36:36;6.60;;;4.80;;
77004;SDS011;67261;53.132;18.006;2023-03-26T08:39:03;5.20;;;3.70;;
77004;SDS011;67261;53.132;18.006;2023-03-26T08:45:01;7.70;;;4.40;;
77004;SDS011;67261;53.132;18.006;2023-03-26T08:55:42;5.00;;;3.60;;
77004;SDS011;67261;53.132;18.006;2023-03-26T09:02:01;7.30;;;6.20;;
77004;SDS011;67261;53.132;18.006;2023-03-26T09:09:38;9.80;;;7.30;;
77004;SDS011;67261;53.132;18.006;2023-03-26T09:36:27;49.00;;;27.80;;
77004;SDS011;67261;53.132;18.006;2023-03-26T09:41:41;63.10;;;33.10;;
77004;SDS011;67261;53.132;18.006;2023-03-26T09:55:46;22.50;;;11.80;;
77004;SDS011;67261;53.132;18.006;2023-03-26T10:06:58;11.60;;;7.20;;
77004;SDS011;67261;53.132;18.006;2023-03-26T10:09:42;11.20;;;6.20;;
77004;SDS011;67261;53.132;18.006;2023-03-26T10:15:01;9.50;;;4.00;;
77004;SDS011;67261;53.132;18.006;2023-03-26T10:17:53;9.00;;;4.50;;
77004;SDS011;67261;53.132;18.006;2023-03-26T10:20:32;9.70;;;5.00;;
77004;SDS011;67261;53.132;18.006;2023-03-26T10:29:11;13.00;;;6.70;;
77004;SDS011;67261;53.132;18.006;2023-03-26T10:32:08;10.60;;;5.50;;
77004;SDS011;67261;53.132;18.006;2023-03-26T10:34:48;8.80;;;4.30;;
77004;SDS011;67261;53.132;18.006;2023-03-26T10:40:30;11.40;;;6.00;;
77004;SDS011;67261;53.132;18.006;2023-03-26T10:51:20;7.30;;;3.90;;
77004;SDS011;67261;53.132;18.006;2023-03-26T10:54:02;4.00;;;2.10;;
77004;SDS011;67261;53.132;18.006;2023-03-26T10:56:32;4.20;;;1.90;;
77004;SDS011;67261;53.132;18.006;2023-03-26T10:59:07;4.70;;;2.10;;
77004;SDS011;67261;53.132;18.006;2023-03-26T11:12:27;5.80;;;3.10;;
77004;SDS011;67261;53.132;18.006;2023-03-26T11:32:41;4.80;;;2.10;;
77004;SDS011;67261;53.132;18.006;2023-03-26T11:35:41;5.80;;;2.20;;
77004;SDS011;67261;53.132;18.006;2023-03-26T11:41:04;5.90;;;1.90;;
77004;SDS011;67261;53.132;18.006;2023-03-26T11:43:51;5.80;;;2.50;;
77004;SDS011;67261;53.132;18.006;2023-03-26T11:46:24;6.00;;;2.50;;
77004;SDS011;67261;53.132;18.006;2023-03-26T11:48:53;8.00;;;3.20;;
77004;SDS011;67261;53.132;18.006;2023-03-26T11:51:33;5.60;;;2.90;;
77004;SDS011;67261;53.132;18.006;2023-03-26T11:54:03;6.90;;;3.90;;
77004;SDS011;67261;53.132;18.006;2023-03-26T12:04:18;6.60;;;2.60;;
77004;SDS011;67261;53.132;18.006;2023-03-26T12:07:40;4.30;;;1.90;;
77004;SDS011;67261;53.132;18.006;2023-03-26T12:12:17;6.20;;;3.00;;
77004;SDS011;67261;53.132;18.006;2023-03-26T12:14:44;6.40;;;2.70;;
77004;SDS011;67261;53.132;18.006;2023-03-26T12:17:34;7.00;;;2.70;;
77004;SDS011;67261;53.132;18.006;2023-03-26T12:20:48;5.50;;;2.60;;
77004;SDS011;67261;53.132;18.006;2023-03-26T12:23:01;5.30;;;2.30;;
77004;SDS011;67261;53.132;18.006;2023-03-26T12:25:32;7.70;;;3.50;;
77004;SDS011;67261;53.132;18.006;2023-03-26T12:30:31;8.80;;;4.80;;
77004;SDS011;67261;53.132;18.006;2023-03-26T12:33:01;6.50;;;3.40;;
77004;SDS011;67261;53.132;18.006;2023-03-26T12:35:32;6.10;;;3.10;;
77004;SDS011;67261;53.132;18.006;2023-03-26T12:40:50;4.40;;;2.60;;
77004;SDS011;67261;53.132;18.006;2023-03-26T12:43:49;4.60;;;2.10;;
77004;SDS011;67261;53.132;18.006;2023-03-26T12:46:27;4.00;;;2.00;;
77004;SDS011;67261;53.132;18.006;2023-03-26T12:48:57;4.30;;;1.70;;
77004;SDS011;67261;53.132;18.006;2023-03-26T12:57:32;7.20;;;3.20;;
77004;SDS011;67261;53.132;18.006;2023-03-26T13:02:53;4.40;;;1.80;;
77004;SDS011;67261;53.132;18.006;2023-03-26T13:15:43;4.20;;;2.20;;
77004;SDS011;67261;53.132;18.006;2023-03-26T13:32:07;5.10;;;2.90;;
77004;SDS011;67261;53.132;18.006;2023-03-26T13:37:48;18.60;;;11.20;;
77004;SDS011;67261;53.132;18.006;2023-03-26T13:41:00;13.30;;;8.50;;
77004;SDS011;67261;53.132;18.006;2023-03-26T13:43:28;7.60;;;4.20;;
77004;SDS011;67261;53.132;18.006;2023-03-26T13:51:47;5.30;;;3.20;;
77004;SDS011;67261;53.132;18.006;2023-03-26T13:54:26;11.50;;;9.90;;
77004;SDS011;67261;53.132;18.006;2023-03-26T14:02:44;5.50;;;1.80;;
77004;SDS011;67261;53.132;18.006;2023-03-26T14:08:10;32.70;;;18.90;;
77004;SDS011;67261;53.132;18.006;2023-03-26T14:10:44;77.00;;;39.20;;
77004;SDS011;67261;53.132;18.006;2023-03-26T14:16:01;34.00;;;23.30;;
77004;SDS011;67261;53.132;18.006;2023-03-26T14:29:27;4.70;;;2.10;;
77004;SDS011;67261;53.132;18.006;2023-03-26T14:38:06;4.70;;;2.30;;
77004;SDS011;67261;53.132;18.006;2023-03-26T14:55:12;24.90;;;11.40;;
77004;SDS011;67261;53.132;18.006;2023-03-26T15:39:39;6.50;;;3.10;;
77004;SDS011;67261;53.132;18.006;2023-03-26T15:42:38;6.30;;;3.10;;
77004;SDS011;67261;53.132;18.006;2023-03-26T15:48:04;7.80;;;4.80;;
77004;SDS011;67261;53.132;18.006;2023-03-26T16:07:54;8.70;;;4.30;;
77004;SDS011;67261;53.132;18.006;2023-03-26T16:13:26;6.30;;;3.00;;
77004;SDS011;67261;53.132;18.006;2023-03-26T16:16:16;10.40;;;5.10;;
77004;SDS011;67261;53.132;18.006;2023-03-26T16:18:46;11.60;;;5.40;;
77004;SDS011;67261;53.132;18.006;2023-03-26T16:24:35;11.90;;;5.60;;
77004;SDS011;67261;53.132;18.006;2023-03-26T16:30:15;14.80;;;8.20;;
77004;SDS011;67261;53.132;18.006;2023-03-26T16:32:53;12.30;;;6.50;;
77004;SDS011;67261;53.132;18.006;2023-03-26T16:35:39;7.90;;;4.30;;
77004;SDS011;67261;53.132;18.006;2023-03-26T16:38:13;6.80;;;4.20;;
77004;SDS011;67261;53.132;18.006;2023-03-26T16:40:57;7.00;;;3.60;;
77004;SDS011;67261;53.132;18.006;2023-03-26T16:43:45;7.20;;;4.70;;
77004;SDS011;67261;53.132;18.006;2023-03-26T16:46:48;8.40;;;4.30;;
77004;SDS011;67261;53.132;18.006;2023-03-26T16:49:24;10.00;;;5.10;;
77004;SDS011;67261;53.132;18.006;2023-03-26T16:52:01;8.00;;;5.10;;
77004;SDS011;67261;53.132;18.006;2023-03-26T17:06:30;18.60;;;9.50;;
77004;SDS011;67261;53.132;18.006;2023-03-26T17:09:12;26.50;;;13.40;;
77004;SDS011;67261;53.132;18.006;2023-03-26T17:14:30;20.70;;;11.00;;
77004;SDS011;67261;53.132;18.006;2023-03-26T17:20:09;16.00;;;8.00;;
77004;SDS011;67261;53.132;18.006;2023-03-26T17:33:53;13.00;;;8.10;;
77004;SDS011;67261;53.132;18.006;2023-03-26T17:36:39;19.60;;;10.70;;
77004;SDS011;67261;53.132;18.006;2023-03-26T17:39:19;33.40;;;17.60;;
77004;SDS011;67261;53.132;18.006;2023-03-26T17:47:52;24.70;;;15.70;;
77004;SDS011;67261;53.132;18.006;2023-03-26T17:50:29;23.50;;;16.00;;
77004;SDS011;67261;53.132;18.006;2023-03-26T17:56:15;15.80;;;9.60;;
77004;SDS011;67261;53.132;18.006;2023-03-26T17:58:57;19.70;;;9.60;;
77004;SDS011;67261;53.132;18.006;2023-03-26T18:01:34;17.50;;;10.00;;
77004;SDS011;67261;53.132;18.006;2023-03-26T18:04:10;18.30;;;10.90;;
77004;SDS011;67261;53.132;18.006;2023-03-26T18:18:01;20.40;;;10.90;;
77004;SDS011;67261;53.132;18.006;2023-03-26T18:20:36;19.40;;;11.00;;
77004;SDS011;67261;53.132;18.006;2023-03-26T18:23:08;18.30;;;9.50;;
77004;SDS011;67261;53.132;18.006;2023-03-26T18:25:37;26.50;;;13.20;;
77004;SDS011;67261;53.132;18.006;2023-03-26T18:28:05;28.50;;;14.00;;
77004;SDS011;67261;53.132;18.006;2023-03-26T18:30:32;27.40;;;15.10;;
77004;SDS011;67261;53.132;18.006;2023-03-26T18:33:13;27.30;;;14.80;;
77004;SDS011;67261;53.132;18.006;2023-03-26T18:35:42;37.50;;;17.60;;
77004;SDS011;67261;53.132;18.006;2023-03-26T18:38:17;52.80;;;26.90;;
77004;SDS011;67261;53.132;18.006;2023-03-26T18:40:47;53.20;;;26.00;;
77004;SDS011;67261;53.132;18.006;2023-03-26T18:43:19;55.30;;;26.30;;
77004;SDS011;67261;53.132;18.006;2023-03-26T18:45:49;53.80;;;28.70;;
77004;SDS011;67261;53.132;18.006;2023-03-26T18:48:21;59.90;;;33.00;;
77004;SDS011;67261;53.132;18.006;2023-03-26T18:50:53;58.70;;;28.50;;
77004;SDS011;67261;53.132;18.006;2023-03-26T18:53:34;45.40;;;23.20;;
77004;SDS011;67261;53.132;18.006;2023-03-26T18:56:16;39.80;;;21.60;;
77004;SDS011;67261;53.132;18.006;2023-03-26T18:58:50;29.30;;;16.40;;
77004;SDS011;67261;53.132;18.006;2023-03-26T19:03:44;29.90;;;16.20;;
77004;SDS011;67261;53.132;18.006;2023-03-26T19:06:13;38.40;;;20.70;;
77004;SDS011;67261;53.132;18.006;2023-03-26T19:08:41;29.60;;;16.40;;
77004;SDS011;67261;53.132;18.006;2023-03-26T19:11:09;28.40;;;14.80;;
77004;SDS011;67261;53.132;18.006;2023-03-26T19:13:37;23.70;;;12.40;;
77004;SDS011;67261;53.132;18.006;2023-03-26T19:16:13;29.80;;;14.60;;
77004;SDS011;67261;53.132;18.006;2023-03-26T19:21:14;13.80;;;6.30;;
77004;SDS011;67261;53.132;18.006;2023-03-26T19:23:43;15.10;;;6.80;;
77004;SDS011;67261;53.132;18.006;2023-03-26T19:26:12;23.60;;;10.90;;
77004;SDS011;67261;53.132;18.006;2023-03-26T19:28:40;21.00;;;9.20;;
77004;SDS011;67261;53.132;18.006;2023-03-26T19:33:41;12.50;;;6.00;;
77004;SDS011;67261;53.132;18.006;2023-03-26T19:36:18;38.00;;;17.50;;
77004;SDS011;67261;53.132;18.006;2023-03-26T19:38:51;17.00;;;6.70;;
77004;SDS011;67261;53.132;18.006;2023-03-26T19:43:59;10.50;;;5.40;;
77004;SDS011;67261;53.132;18.006;2023-03-26T19:46:36;10.80;;;4.80;;
77004;SDS011;67261;53.132;18.006;2023-03-26T19:49:03;11.90;;;4.20;;
77004;SDS011;67261;53.132;18.006;2023-03-26T19:51:31;9.60;;;3.70;;
77004;SDS011;67261;53.132;18.006;2023-03-26T19:54:00;10.40;;;3.70;;
77004;SDS011;67261;53.132;18.006;2023-03-26T19:56:29;11.90;;;4.00;;
77004;SDS011;67261;53.132;18.006;2023-03-26T19:58:55;14.00;;;4.50;;
77004;SDS011;67261;53.132;18.006;2023-03-26T20:01:25;10.00;;;5.10;;
77004;SDS011;67261;53.132;18.006;2023-03-26T20:03:54;11.20;;;4.20;;
77004;SDS011;67261;53.132;18.006;2023-03-26T20:06:23;10.40;;;3.50;;
77004;SDS011;67261;53.132;18.006;2023-03-26T20:08:53;12.80;;;4.60;;
77004;SDS011;67261;53.132;18.006;2023-03-26T20:13:49;9.40;;;3.00;;
77004;SDS011;67261;53.132;18.006;2023-03-26T20:16:29;9.20;;;4.10;;
77004;SDS011;67261;53.132;18.006;2023-03-26T20:18:58;11.20;;;3.80;;
77004;SDS011;67261;53.132;18.006;2023-03-26T20:21:29;12.10;;;4.10;;
77004;SDS011;67261;53.132;18.006;2023-03-26T20:24:13;10.30;;;3.30;;
77004;SDS011;67261;53.132;18.006;2023-03-26T20:26:41;11.40;;;4.00;;
77004;SDS011;67261;53.132;18.006;2023-03-26T20:29:08;15.20;;;4.80;;
77004;SDS011;67261;53.132;18.006;2023-03-26T20:31:36;9.90;;;4.90;;
77004;SDS011;67261;53.132;18.006;2023-03-26T20:34:04;13.40;;;4.70;;
77004;SDS011;67261;53.132;18.006;2023-03-26T20:36:36;8.30;;;3.90;;
77004;SDS011;67261;53.132;18.006;2023-03-26T20:39:02;16.30;;;4.70;;
77004;SDS011;67261;53.132;18.006;2023-03-26T20:41:32;9.80;;;4.60;;
77004;SDS011;67261;53.132;18.006;2023-03-26T20:44:07;16.80;;;5.60;;
77004;SDS011;67261;53.132;18.006;2023-03-26T20:46:38;14.40;;;5.30;;
77004;SDS011;67261;53.132;18.006;2023-03-26T20:49:05;16.50;;;6.50;;
77004;SDS011;67261;53.132;18.006;2023-03-26T20:51:32;16.30;;;6.20;;
77004;SDS011;67261;53.132;18.006;2023-03-26T20:56:27;14.30;;;6.10;;
77004;SDS011;67261;53.132;18.006;2023-03-26T20:58:54;17.20;;;7.00;;
77004;SDS011;67261;53.132;18.006;2023-03-26T21:01:23;19.20;;;7.80;;
77004;SDS011;67261;53.132;18.006;2023-03-26T21:03:50;16.30;;;7.20;;
77004;SDS011;67261;53.132;18.006;2023-03-26T21:06:17;18.80;;;6.30;;
77004;SDS011;67261;53.132;18.006;2023-03-26T21:08:43;19.50;;;6.80;;
77004;SDS011;67261;53.132;18.006;2023-03-26T21:11:36;19.90;;;7.70;;
77004;SDS011;67261;53.132;18.006;2023-03-26T21:14:09;19.40;;;7.50;;
77004;SDS011;67261;53.132;18.006;2023-03-26T21:16:40;20.50;;;7.00;;
77004;SDS011;67261;53.132;18.006;2023-03-26T21:19:08;17.50;;;6.80;;
77004;SDS011;67261;53.132;18.006;2023-03-26T21:27:01;17.10;;;5.90;;
77004;SDS011;67261;53.132;18.006;2023-03-26T21:29:40;20.30;;;7.10;;
77004;SDS011;67261;53.132;18.006;2023-03-26T21:32:08;19.20;;;7.00;;
77004;SDS011;67261;53.132;18.006;2023-03-26T21:34:36;18.20;;;5.80;;
77004;SDS011;67261;53.132;18.006;2023-03-26T21:37:05;18.70;;;6.90;;
77004;SDS011;67261;53.132;18.006;2023-03-26T21:39:32;21.80;;;6.60;;
77004;SDS011;67261;53.132;18.006;2023-03-26T21:42:00;16.40;;;5.80;;
77004;SDS011;67261;53.132;18.006;2023-03-26T21:44:26;20.10;;;7.00;;
77004;SDS011;67261;53.132;18.006;2023-03-26T21:46:53;20.10;;;6.40;;
77004;SDS011;67261;53.132;18.006;2023-03-26T21:49:23;15.20;;;5.70;;
77004;SDS011;67261;53.132;18.006;2023-03-26T21:51:50;15.00;;;6.40;;
77004;SDS011;67261;53.132;18.006;2023-03-26T22:05:48;21.20;;;7.70;;
77004;SDS011;67261;53.132;18.006;2023-03-26T22:08:29;25.00;;;8.60;;
77004;SDS011;67261;53.132;18.006;2023-03-26T22:10:59;19.20;;;7.90;;
77004;SDS011;67261;53.132;18.006;2023-03-26T22:13:26;20.00;;;9.20;;
77004;SDS011;67261;53.132;18.006;2023-03-26T22:15:52;26.80;;;10.40;;
77004;SDS011;67261;53.132;18.006;2023-03-26T22:18:19;27.20;;;11.00;;
77004;SDS011;67261;53.132;18.006;2023-03-26T22:20:47;26.00;;;10.90;;
77004;SDS011;67261;53.132;18.006;2023-03-26T22:23:14;26.50;;;12.10;;
77004;SDS011;67261;53.132;18.006;2023-03-26T22:25:41;27.80;;;12.00;;
77004;SDS011;67261;53.132;18.006;2023-03-26T22:28:08;26.10;;;10.80;;
77004;SDS011;67261;53.132;18.006;2023-03-26T22:30:34;32.60;;;12.60;;
77004;SDS011;67261;53.132;18.006;2023-03-26T22:33:01;30.70;;;12.40;;